Ocean Falls, Canada
Current Conditions -  °F | °C
As of 3:00 PM on Friday 28 Nov 2014 (Local Time) from CYBD Reporting Station
Broken Clouds Broken Clouds  
Wind Chill: -3°   Ceiling: 6200
Heat Index: 14°   Visibility: 12mi
Dew Point: -4°   Wind: 20mph
Humidity: 45%   Direction: 80°E
Pressure: 30"   Gusts: 29mph
Location:  52.35°N, 127.7°W
Report Text: CYBD 282300Z 08017G25KT 050V130 12SM FEW058TCU BKN062TCU BKN090 M10/M20 A3000 RMK TCU2TCU3AC1 VIS W15 SLP162
Loading
Personal Weather Stations






























Interactive Weather Map New forecast layout! Learn more

10-Day Weather Forecast

Advertisements
Track Severe Weather on mobile